Time;durP1;ratioP1;P1;durP2;ratioP2;P2;SDS_P1;SDS_P2;PMS_P1;PMS_P2;Temp;Humidity;BMP_temperature;BMP_pressure;BME280_temperature;BME280_humidity;BME280_pressure;Samples;Min_cycle;Max_cycle;Signal;HPM_P1;HPM_P2
2022/10/05 00:01:32;;;;;;;;;;;12.80;93.40;;;;;;5079661;28;19915;-69
2022/10/05 00:04:14;;;;;;;;;;;12.70;93.30;;;;;;5071065;28;20019;-69
2022/10/05 00:07:02;;;;;;;;;;;12.70;93.30;;;;;;5078842;28;19970;-69
2022/10/05 00:09:29;;;;;;;;;;;12.70;93.70;;;;;;5073147;28;19991;-69
2022/10/05 00:11:55;;;;;;;;;;;12.70;93.20;;;;;;5080822;28;19920;-70
2022/10/05 00:14:23;;;;;;;;;;;12.70;93.30;;;;;;5082882;28;19934;-69
2022/10/05 00:16:48;;;;;;;;;;;12.70;93.30;;;;;;5063542;28;20586;-69
2022/10/05 00:19:18;;;;;;;;;;;12.70;93.40;;;;;;5082754;28;19916;-69
2022/10/05 00:21:43;;;;;;;;;;;12.70;93.30;;;;;;5078375;28;19912;-69
2022/10/05 00:24:09;;;;;;;;;;;12.70;93.40;;;;;;5080870;28;19912;-70
2022/10/05 00:26:35;;;;;;;;;;;12.70;93.40;;;;;;5085460;28;20003;-69
2022/10/05 00:29:05;;;;;;;;;;;12.70;93.30;;;;;;5082913;28;20046;-70
2022/10/05 00:31:31;;;;;;;;;;;12.70;93.30;;;;;;5067173;28;19923;-70
2022/10/05 00:33:57;;;;;;;;;;;12.70;93.30;;;;;;5082057;28;20042;-69
2022/10/05 00:36:24;;;;;;;;;;;12.70;93.20;;;;;;5084974;28;19954;-69
2022/10/05 00:38:51;;;;;;;;;;;12.70;93.20;;;;;;5082839;28;19916;-70
2022/10/05 00:41:19;;;;;;;;;;;12.70;93.10;;;;;;5085102;28;19912;-70
2022/10/05 00:43:45;;;;;;;;;;;12.60;93.10;;;;;;5078611;28;19920;-70
2022/10/05 00:46:10;;;;;;;;;;;12.70;93.10;;;;;;5085267;28;19912;-70
2022/10/05 00:48:37;;;;;;;;;;;12.70;93.10;;;;;;5082443;28;19946;-70
2022/10/05 00:51:03;;;;;;;;;;;12.70;93.10;;;;;;5085088;28;20008;-70
2022/10/05 00:53:31;;;;;;;;;;;12.70;93.10;;;;;;5079075;28;20348;-69
2022/10/05 00:56:09;;;;;;;;;;;12.60;93.10;;;;;;5079277;28;20596;-70
2022/10/05 00:58:47;;;;;;;;;;;12.70;93.10;;;;;;5081982;28;19920;-70
2022/10/05 01:01:16;;;;;;;;;;;12.70;93.10;;;;;;5080743;28;19970;-70
2022/10/05 01:04:01;;;;;;;;;;;12.60;93.10;;;;;;5081997;28;19916;-70
2022/10/05 01:06:29;;;;;;;;;;;12.70;93.10;;;;;;5085197;28;19969;-69
2022/10/05 01:09:05;;;;;;;;;;;12.70;93.10;;;;;;5081893;28;20002;-70
2022/10/05 01:11:37;;;;;;;;;;;12.60;93.10;;;;;;5078502;28;20019;-70
2022/10/05 01:14:21;;;;;;;;;;;12.70;93.10;;;;;;5060989;28;19913;-70
2022/10/05 01:16:59;;;;;;;;;;;12.60;93.10;;;;;;5080971;28;19923;-70
2022/10/05 01:19:30;;;;;;;;;;;12.60;93.10;;;;;;5081163;28;19923;-70
2022/10/05 01:21:59;;;;;;;;;;;12.60;93.00;;;;;;5085121;28;20712;-69
2022/10/05 01:24:35;;;;;;;;;;;12.60;93.10;;;;;;5081198;28;19912;-70
2022/10/05 01:27:15;;;;;;;;;;;12.60;93.10;;;;;;5082894;28;20281;-70
2022/10/05 01:29:40;;;;;;;;;;;12.60;93.10;;;;;;5077825;28;20339;-70
2022/10/05 01:32:17;;;;;;;;;;;12.60;93.10;;;;;;5084052;28;20011;-69
2022/10/05 01:34:47;;;;;;;;;;;12.60;93.10;;;;;;5076114;28;20373;-70
2022/10/05 01:37:48;;;;;;;;;;;12.60;93.10;;;;;;5080415;28;19916;-70
2022/10/05 01:40:14;;;;;;;;;;;12.60;93.10;;;;;;4994492;28;20339;-69
2022/10/05 01:42:39;;;;;;;;;;;12.60;93.10;;;;;;5064082;28;19912;-69
2022/10/05 01:45:13;;;;;;;;;;;12.60;93.10;;;;;;5076731;28;20552;-70
2022/10/05 01:47:47;;;;;;;;;;;12.60;93.10;;;;;;5081739;28;20523;-70
2022/10/05 01:50:15;;;;;;;;;;;12.60;93.10;;;;;;5080125;28;19927;-70
2022/10/05 01:52:46;;;;;;;;;;;12.60;93.10;;;;;;5084493;28;19966;-70
2022/10/05 01:55:12;;;;;;;;;;;12.60;93.10;;;;;;5081173;28;20616;-70
2022/10/05 01:57:43;;;;;;;;;;;12.60;93.10;;;;;;5088334;28;19912;-70
2022/10/05 02:00:11;;;;;;;;;;;12.60;93.10;;;;;;5086977;28;20349;-70
2022/10/05 02:02:46;;;;;;;;;;;12.60;93.10;;;;;;5084977;28;20395;-69
2022/10/05 02:05:17;;;;;;;;;;;12.60;93.00;;;;;;5069516;28;19923;-69
2022/10/05 02:07:43;;;;;;;;;;;12.60;93.10;;;;;;5084488;28;19915;-70
2022/10/05 02:10:11;;;;;;;;;;;12.60;93.10;;;;;;5087650;28;20357;-70
2022/10/05 02:12:37;;;;;;;;;;;12.60;93.00;;;;;;5085440;28;19931;-70
2022/10/05 02:15:09;;;;;;;;;;;12.60;93.10;;;;;;5086228;28;20265;-70
2022/10/05 02:17:37;;;;;;;;;;;12.60;93.00;;;;;;5077453;28;19920;-70
2022/10/05 02:20:06;;;;;;;;;;;12.60;93.10;;;;;;5070023;28;20629;-70
2022/10/05 02:22:34;;;;;;;;;;;12.60;93.00;;;;;;5084942;28;19920;-70
2022/10/05 02:25:08;;;;;;;;;;;12.60;93.10;;;;;;5086455;28;20067;-70
2022/10/05 02:27:36;;;;;;;;;;;12.60;93.00;;;;;;5082557;28;19916;-69
2022/10/05 02:30:04;;;;;;;;;;;12.60;93.00;;;;;;5082104;28;20368;-70
2022/10/05 02:32:50;;;;;;;;;;;12.60;93.00;;;;;;5084648;28;19958;-70
2022/10/05 02:35:16;;;;;;;;;;;12.60;93.10;;;;;;5086774;28;19916;-70
2022/10/05 02:37:54;;;;;;;;;;;12.60;93.00;;;;;;5085013;28;20069;-70
2022/10/05 02:40:32;;;;;;;;;;;12.60;93.00;;;;;;5082649;28;19912;-69
2022/10/05 02:42:57;;;;;;;;;;;12.60;93.10;;;;;;5079260;28;19963;-69
2022/10/05 02:45:26;;;;;;;;;;;12.60;93.00;;;;;;5086187;28;20373;-70
2022/10/05 02:47:57;;;;;;;;;;;12.60;93.00;;;;;;5078986;28;19981;-70
2022/10/05 02:50:49;;;;;;;;;;;12.60;93.00;;;;;;5087642;28;19920;-69
2022/10/05 02:53:24;;;;;;;;;;;12.60;93.00;;;;;;5076711;28;19959;-70
2022/10/05 02:55:58;;;;;;;;;;;12.60;93.00;;;;;;5084898;28;19912;-70
2022/10/05 02:58:26;;;;;;;;;;;12.60;93.00;;;;;;5079859;28;20586;-70
2022/10/05 03:01:01;;;;;;;;;;;12.60;93.00;;;;;;5081630;28;19919;-71
2022/10/05 03:03:32;;;;;;;;;;;12.60;93.00;;;;;;5079168;28;19916;-69
2022/10/05 03:06:02;;;;;;;;;;;12.60;93.00;;;;;;5086322;28;19920;-69
2022/10/05 03:08:33;;;;;;;;;;;12.60;93.00;;;;;;5079662;28;19916;-70
2022/10/05 03:11:01;;;;;;;;;;;12.60;93.00;;;;;;5082670;28;20018;-69
2022/10/05 03:13:35;;;;;;;;;;;12.60;93.00;;;;;;5084223;28;19923;-70
2022/10/05 03:16:19;;;;;;;;;;;12.60;93.10;;;;;;5084189;28;20007;-70
2022/10/05 03:18:47;;;;;;;;;;;12.60;93.00;;;;;;5084258;28;19923;-70
2022/10/05 03:21:32;;;;;;;;;;;12.60;93.00;;;;;;5086826;28;19912;-70
2022/10/05 03:24:17;;;;;;;;;;;12.50;93.00;;;;;;5081152;28;19916;-70
2022/10/05 03:26:59;;;;;;;;;;;12.60;93.00;;;;;;5087463;28;19912;-70
2022/10/05 03:29:34;;;;;;;;;;;12.60;93.00;;;;;;5078118;28;19920;-69
2022/10/05 03:32:08;;;;;;;;;;;12.60;93.10;;;;;;5086708;28;19916;-69
2022/10/05 03:34:54;;;;;;;;;;;12.60;93.00;;;;;;5076360;28;19916;-69
2022/10/05 03:37:28;;;;;;;;;;;12.60;93.00;;;;;;5078604;28;19912;-70
2022/10/05 03:39:59;;;;;;;;;;;12.60;93.00;;;;;;5078391;28;19916;-70
2022/10/05 03:42:34;;;;;;;;;;;12.60;93.00;;;;;;5086580;28;19919;-70
2022/10/05 03:45:18;;;;;;;;;;;12.60;93.00;;;;;;5082641;28;20019;-70
2022/10/05 03:47:45;;;;;;;;;;;12.50;93.00;;;;;;5082369;28;19948;-70
2022/10/05 03:50:29;;;;;;;;;;;12.60;93.00;;;;;;5084224;28;19923;-71
2022/10/05 03:52:54;;;;;;;;;;;12.60;93.00;;;;;;5085695;28;19916;-70
2022/10/05 03:55:23;;;;;;;;;;;12.60;93.10;;;;;;5083479;28;19938;-70
2022/10/05 03:57:50;;;;;;;;;;;12.60;93.00;;;;;;5084106;28;19915;-70
2022/10/05 04:00:17;;;;;;;;;;;12.60;93.10;;;;;;5080889;28;19915;-70
2022/10/05 04:03:01;;;;;;;;;;;12.60;93.00;;;;;;5075216;28;19961;-70
2022/10/05 04:05:32;;;;;;;;;;;12.60;93.00;;;;;;5079604;28;19916;-70
2022/10/05 04:07:58;;;;;;;;;;;12.60;93.10;;;;;;5081118;28;19954;-70
2022/10/05 04:10:24;;;;;;;;;;;12.60;93.00;;;;;;5077782;28;19912;-70
2022/10/05 04:12:53;;;;;;;;;;;12.60;93.00;;;;;;5076503;28;19924;-70
2022/10/05 04:15:28;;;;;;;;;;;12.60;93.00;;;;;;5082236;28;20420;-70
2022/10/05 04:17:57;;;;;;;;;;;12.60;93.00;;;;;;5066292;28;19923;-70
2022/10/05 04:20:29;;;;;;;;;;;12.60;93.00;;;;;;5085673;28;19944;-70
2022/10/05 04:23:10;;;;;;;;;;;12.60;93.00;;;;;;5082768;28;19916;-70
2022/10/05 04:25:38;;;;;;;;;;;12.50;93.00;;;;;;5063667;28;19951;-70
2022/10/05 04:28:19;;;;;;;;;;;12.60;93.00;;;;;;5082522;28;19990;-70
2022/10/05 04:30:46;;;;;;;;;;;12.50;93.00;;;;;;5084942;28;19916;-70
2022/10/05 04:33:12;;;;;;;;;;;12.60;93.10;;;;;;5082467;28;19920;-70
2022/10/05 04:35:51;;;;;;;;;;;12.60;93.00;;;;;;5084693;28;19912;-70
2022/10/05 04:38:35;;;;;;;;;;;12.50;93.00;;;;;;5082751;28;19962;-70
2022/10/05 04:41:15;;;;;;;;;;;12.50;93.00;;;;;;5085282;28;20128;-71
2022/10/05 04:43:41;;;;;;;;;;;12.60;93.00;;;;;;5079733;28;20015;-70
2022/10/05 04:46:12;;;;;;;;;;;12.50;93.00;;;;;;5079521;28;19916;-70
2022/10/05 04:48:50;;;;;;;;;;;12.60;93.00;;;;;;5079978;28;19927;-70
2022/10/05 04:51:15;;;;;;;;;;;12.60;93.00;;;;;;5085237;28;20557;-70
2022/10/05 04:53:55;;;;;;;;;;;12.60;93.00;;;;;;5081944;28;19916;-70
2022/10/05 04:56:47;;;;;;;;;;;12.60;93.00;;;;;;5084612;28;19914;-70
2022/10/05 04:59:22;;;;;;;;;;;12.60;93.00;;;;;;5076256;28;20391;-70
2022/10/05 05:01:56;;;;;;;;;;;12.60;93.00;;;;;;5082859;28;19943;-70
2022/10/05 05:04:22;;;;;;;;;;;12.60;93.10;;;;;;5079553;28;20640;-69
2022/10/05 05:06:53;;;;;;;;;;;12.60;93.00;;;;;;5085315;28;19920;-70
2022/10/05 05:09:23;;;;;;;;;;;12.60;93.00;;;;;;5081942;28;20456;-70
2022/10/05 05:11:58;;;;;;;;;;;12.60;93.00;;;;;;5084503;28;19920;-70
2022/10/05 05:14:36;;;;;;;;;;;12.60;92.90;;;;;;5078612;28;19991;-70
2022/10/05 05:17:25;;;;;;;;;;;12.60;93.00;;;;;;5084082;28;19912;-70
2022/10/05 05:20:00;;;;;;;;;;;12.60;93.00;;;;;;5034010;28;19922;-70
2022/10/05 05:22:37;;;;;;;;;;;12.60;92.90;;;;;;5089294;28;19986;-69
2022/10/05 05:25:12;;;;;;;;;;;12.60;92.90;;;;;;5080799;28;19912;-70
2022/10/05 05:27:37;;;;;;;;;;;12.60;92.90;;;;;;5081006;28;20810;-70
2022/10/05 05:30:20;;;;;;;;;;;12.60;93.00;;;;;;5080799;28;19951;-70
2022/10/05 05:32:46;;;;;;;;;;;12.60;93.00;;;;;;5089035;28;20435;-70
2022/10/05 05:35:30;;;;;;;;;;;12.70;93.00;;;;;;5084434;28;19950;-70
2022/10/05 05:38:28;;;;;;;;;;;12.60;92.90;;;;;;5087230;28;20400;-70
2022/10/05 05:40:54;;;;;;;;;;;12.60;92.90;;;;;;5027610;28;19923;-70
2022/10/05 05:43:19;;;;;;;;;;;12.60;93.00;;;;;;5087865;28;20331;-70
2022/10/05 05:45:50;;;;;;;;;;;12.70;92.90;;;;;;5067490;28;19966;-70
2022/10/05 05:48:22;;;;;;;;;;;12.60;92.90;;;;;;5088242;28;19912;-70
2022/10/05 05:50:47;;;;;;;;;;;12.70;92.90;;;;;;5066447;28;19992;-70
2022/10/05 05:53:19;;;;;;;;;;;12.70;92.90;;;;;;5068289;28;20608;-70
2022/10/05 05:55:47;;;;;;;;;;;12.70;92.90;;;;;;5083439;28;20616;-70
2022/10/05 05:58:15;;;;;;;;;;;12.70;92.90;;;;;;5087949;28;19916;-70
2022/10/05 06:00:48;;;;;;;;;;;12.70;92.80;;;;;;5084900;28;19973;-69
2022/10/05 06:03:32;;;;;;;;;;;12.70;92.80;;;;;;5084976;28;19916;-70
2022/10/05 06:06:00;;;;;;;;;;;12.70;92.90;;;;;;5081024;28;20616;-70
2022/10/05 06:08:38;;;;;;;;;;;12.70;92.80;;;;;;5081044;28;20405;-70
2022/10/05 06:11:08;;;;;;;;;;;12.70;92.80;;;;;;5082530;28;19976;-70
2022/10/05 06:13:34;;;;;;;;;;;12.80;92.90;;;;;;5087375;28;19916;-69
2022/10/05 06:16:08;;;;;;;;;;;12.70;92.80;;;;;;5083153;28;19916;-70
2022/10/05 06:18:35;;;;;;;;;;;12.80;92.80;;;;;;5085688;28;20440;-70
2022/10/05 06:21:05;;;;;;;;;;;12.80;92.90;;;;;;5085424;28;19927;-70
2022/10/05 06:23:57;;;;;;;;;;;12.80;92.90;;;;;;5085643;28;19912;-69
2022/10/05 06:26:28;;;;;;;;;;;12.80;92.90;;;;;;5079416;28;19966;-70
2022/10/05 06:28:59;;;;;;;;;;;12.80;92.90;;;;;;5065035;28;20007;-69
2022/10/05 06:31:31;;;;;;;;;;;12.90;92.80;;;;;;5083986;28;19985;-70
2022/10/05 06:34:13;;;;;;;;;;;12.90;92.70;;;;;;5087591;28;19995;-70
2022/10/05 06:36:41;;;;;;;;;;;12.90;92.80;;;;;;5082858;28;19916;-70
2022/10/05 06:39:07;;;;;;;;;;;12.90;92.80;;;;;;5085209;28;20699;-70
2022/10/05 06:41:38;;;;;;;;;;;12.90;92.70;;;;;;5083118;28;19923;-70
2022/10/05 06:44:16;;;;;;;;;;;12.90;92.80;;;;;;5084045;28;19920;-69
2022/10/05 06:47:01;;;;;;;;;;;13.00;92.70;;;;;;5072150;28;19924;-70
2022/10/05 06:49:33;;;;;;;;;;;12.90;92.70;;;;;;5082959;28;19908;-69
2022/10/05 06:51:58;;;;;;;;;;;13.00;92.60;;;;;;5084715;28;20011;-70
2022/10/05 06:54:30;;;;;;;;;;;13.00;92.70;;;;;;5086582;28;19922;-70
2022/10/05 06:57:14;;;;;;;;;;;13.00;92.60;;;;;;5084636;28;20024;-69
2022/10/05 06:59:52;;;;;;;;;;;13.10;92.60;;;;;;5085846;28;20570;-70
2022/10/05 07:02:24;;;;;;;;;;;13.10;92.60;;;;;;5083012;28;20017;-69
2022/10/05 07:04:55;;;;;;;;;;;13.10;92.70;;;;;;5076604;28;19966;-69
2022/10/05 07:07:31;;;;;;;;;;;13.10;92.60;;;;;;5084501;28;19913;-70
2022/10/05 07:10:15;;;;;;;;;;;13.10;92.60;;;;;;5084514;28;20576;-69
2022/10/05 07:12:41;;;;;;;;;;;13.10;92.50;;;;;;5075816;28;19920;-70
2022/10/05 07:15:06;;;;;;;;;;;13.20;92.50;;;;;;5078944;28;19925;-70
2022/10/05 07:17:38;;;;;;;;;;;13.20;92.50;;;;;;5083262;28;19912;-70
2022/10/05 07:20:06;;;;;;;;;;;13.20;92.60;;;;;;5082814;28;19983;-70
2022/10/05 07:22:57;;;;;;;;;;;13.20;92.40;;;;;;5086714;28;19912;-70
2022/10/05 07:25:27;;;;;;;;;;;13.30;92.50;;;;;;5085540;28;19983;-70
2022/10/05 07:27:53;;;;;;;;;;;13.30;92.60;;;;;;5084987;28;20459;-70
2022/10/05 07:30:19;;;;;;;;;;;13.30;92.40;;;;;;5084376;28;19916;-70
2022/10/05 07:32:53;;;;;;;;;;;13.30;92.50;;;;;;5068067;28;19927;-70
2022/10/05 07:38:07;;;;;;;;;;;13.40;92.50;;;;;;5082479;28;20034;-70
2022/10/05 07:40:51;;;;;;;;;;;13.40;92.60;;;;;;5083580;28;19918;-70
2022/10/05 07:43:23;;;;;;;;;;;13.40;92.70;;;;;;5082256;28;19997;-70
2022/10/05 07:45:59;;;;;;;;;;;13.40;92.60;;;;;;5082099;28;19927;-70
2022/10/05 07:48:31;;;;;;;;;;;13.40;92.60;;;;;;5086478;28;19916;-70
2022/10/05 07:50:57;;;;;;;;;;;13.50;92.50;;;;;;5082284;28;19916;-70
2022/10/05 07:53:34;;;;;;;;;;;13.50;92.40;;;;;;5086391;28;20379;-70
2022/10/05 07:56:02;;;;;;;;;;;13.50;92.60;;;;;;5082683;28;19916;-70
2022/10/05 07:58:30;;;;;;;;;;;13.50;92.50;;;;;;5086245;28;19916;-69
2022/10/05 08:00:55;;;;;;;;;;;13.50;92.60;;;;;;5081680;28;19973;-70
2022/10/05 08:03:44;;;;;;;;;;;13.50;92.50;;;;;;5067942;28;19920;-70
2022/10/05 08:06:30;;;;;;;;;;;13.50;92.70;;;;;;5052933;28;19951;-70
2022/10/05 08:08:59;;;;;;;;;;;13.60;92.60;;;;;;5082675;28;19998;-70
2022/10/05 08:11:36;;;;;;;;;;;13.60;92.60;;;;;;5060919;28;19927;-70
2022/10/05 08:14:14;;;;;;;;;;;13.70;92.70;;;;;;5079724;28;20003;-69
2022/10/05 08:16:40;;;;;;;;;;;13.70;92.50;;;;;;5080554;28;20361;-70
2022/10/05 08:19:14;;;;;;;;;;;13.70;92.60;;;;;;5080892;28;19992;-69
2022/10/05 08:21:58;;;;;;;;;;;13.70;92.60;;;;;;5083088;28;19916;-70
2022/10/05 08:24:29;;;;;;;;;;;13.80;92.70;;;;;;5084401;28;19947;-70
2022/10/05 08:27:01;;;;;;;;;;;13.80;92.70;;;;;;5082185;28;19920;-69
2022/10/05 08:29:46;;;;;;;;;;;13.80;92.60;;;;;;5084886;28;20401;-69
2022/10/05 08:32:17;;;;;;;;;;;13.80;92.50;;;;;;5079016;28;19916;-70
2022/10/05 08:34:46;;;;;;;;;;;13.90;92.60;;;;;;5083629;28;20384;-70
2022/10/05 08:37:14;;;;;;;;;;;13.90;92.70;;;;;;5082656;28;19916;-69
2022/10/05 08:39:46;;;;;;;;;;;13.90;92.50;;;;;;5080440;28;19908;-69
2022/10/05 08:42:26;;;;;;;;;;;13.90;92.50;;;;;;5082103;28;20615;-70
2022/10/05 08:45:01;;;;;;;;;;;14.00;92.60;;;;;;5081629;28;20375;-70
2022/10/05 08:47:37;;;;;;;;;;;14.00;92.50;;;;;;5082757;28;19923;-69
2022/10/05 08:50:02;;;;;;;;;;;14.00;92.40;;;;;;5080324;28;19993;-70
2022/10/05 08:52:29;;;;;;;;;;;14.10;92.50;;;;;;5080954;28;20265;-70
2022/10/05 08:55:13;;;;;;;;;;;14.10;92.60;;;;;;5079062;28;20274;-70
2022/10/05 08:57:58;;;;;;;;;;;14.10;92.40;;;;;;5077549;28;19920;-69
2022/10/05 09:00:29;;;;;;;;;;;14.20;92.50;;;;;;5083187;28;19998;-70
2022/10/05 09:03:13;;;;;;;;;;;14.20;92.40;;;;;;5082257;28;19912;-70
2022/10/05 09:06:03;;;;;;;;;;;14.20;92.40;;;;;;5078759;28;19927;-70
2022/10/05 09:08:44;;;;;;;;;;;14.20;92.50;;;;;;5079987;28;19923;-70
2022/10/05 09:11:13;;;;;;;;;;;14.30;92.50;;;;;;5083572;28;19912;-70
2022/10/05 09:13:48;;;;;;;;;;;14.30;92.40;;;;;;5082239;28;19923;-70
2022/10/05 09:16:30;;;;;;;;;;;14.40;92.60;;;;;;5082302;28;19912;-70
2022/10/05 09:19:14;;;;;;;;;;;14.40;92.30;;;;;;5082330;28;19969;-70
2022/10/05 09:21:41;;;;;;;;;;;14.40;92.40;;;;;;5082743;28;19938;-70
2022/10/05 09:24:18;;;;;;;;;;;14.50;92.40;;;;;;5079334;28;20360;-70
2022/10/05 09:26:53;;;;;;;;;;;14.50;92.40;;;;;;5083674;28;19912;-70
2022/10/05 09:29:33;;;;;;;;;;;14.50;92.50;;;;;;5079012;28;20670;-70
2022/10/05 09:32:18;;;;;;;;;;;14.60;92.30;;;;;;5084592;28;19919;-70
2022/10/05 09:34:55;;;;;;;;;;;14.60;92.30;;;;;;5080263;28;19916;-70
2022/10/05 09:37:30;;;;;;;;;;;14.70;92.50;;;;;;5084670;28;20573;-70
2022/10/05 09:40:13;;;;;;;;;;;14.70;92.10;;;;;;5079128;28;19926;-70
2022/10/05 09:42:39;;;;;;;;;;;14.80;92.40;;;;;;5080484;28;19927;-70
2022/10/05 09:45:20;;;;;;;;;;;14.80;92.20;;;;;;5081562;28;19930;-70
2022/10/05 09:47:51;;;;;;;;;;;14.80;92.20;;;;;;5079359;28;20555;-70
2022/10/05 09:50:30;;;;;;;;;;;14.90;92.00;;;;;;5079878;28;20279;-70
2022/10/05 09:53:14;;;;;;;;;;;14.90;92.00;;;;;;5084456;28;20553;-70
2022/10/05 09:55:49;;;;;;;;;;;15.00;91.90;;;;;;5077010;28;19951;-70
2022/10/05 09:58:27;;;;;;;;;;;15.10;92.00;;;;;;5084633;28;19944;-70
2022/10/05 10:00:52;;;;;;;;;;;15.10;91.80;;;;;;5080297;28;19958;-71
2022/10/05 10:03:26;;;;;;;;;;;15.20;91.80;;;;;;5084129;28;19915;-70
2022/10/05 10:05:58;;;;;;;;;;;15.20;91.80;;;;;;5077791;28;19927;-70
2022/10/05 10:08:29;;;;;;;;;;;15.30;91.90;;;;;;5085379;28;19926;-70
2022/10/05 10:10:54;;;;;;;;;;;15.30;91.60;;;;;;5083830;28;19920;-70
2022/10/05 10:13:34;;;;;;;;;;;15.30;91.90;;;;;;5066269;28;19923;-70
2022/10/05 10:16:03;;;;;;;;;;;15.30;91.60;;;;;;5082680;28;19912;-70
2022/10/05 10:18:38;;;;;;;;;;;15.40;91.60;;;;;;5069793;28;19930;-70
2022/10/05 10:21:20;;;;;;;;;;;15.50;91.60;;;;;;5083627;28;19912;-70
2022/10/05 10:23:53;;;;;;;;;;;15.50;91.60;;;;;;5087732;28;19920;-70
2022/10/05 10:26:38;;;;;;;;;;;15.60;91.50;;;;;;5082958;28;19934;-70
2022/10/05 10:29:12;;;;;;;;;;;15.60;91.60;;;;;;5082259;28;19916;-71
2022/10/05 10:31:40;;;;;;;;;;;15.70;91.60;;;;;;5084607;28;20782;-70
2022/10/05 10:34:13;;;;;;;;;;;15.80;91.50;;;;;;5069459;28;19919;-70
2022/10/05 10:36:38;;;;;;;;;;;15.80;91.70;;;;;;5064114;28;20501;-70
2022/10/05 10:39:16;;;;;;;;;;;15.90;91.60;;;;;;5087791;28;19919;-70
2022/10/05 10:41:47;;;;;;;;;;;15.90;91.40;;;;;;5081490;28;20291;-70
2022/10/05 10:44:31;;;;;;;;;;;15.90;91.40;;;;;;5086554;28;19918;-70
2022/10/05 10:47:03;;;;;;;;;;;16.00;91.50;;;;;;5075824;28;19916;-70
2022/10/05 10:49:47;;;;;;;;;;;16.00;91.40;;;;;;5086377;28;19912;-70
2022/10/05 10:52:20;;;;;;;;;;;16.00;91.40;;;;;;5083539;28;19920;-70
2022/10/05 10:54:57;;;;;;;;;;;16.10;91.30;;;;;;5085660;28;19916;-70
2022/10/05 10:57:22;;;;;;;;;;;16.10;91.40;;;;;;5083878;28;19916;-70
2022/10/05 10:59:57;;;;;;;;;;;16.10;91.30;;;;;;5085124;28;19939;-69
2022/10/05 11:02:22;;;;;;;;;;;16.10;91.30;;;;;;5083120;28;20735;-70
2022/10/05 11:04:57;;;;;;;;;;;16.20;91.40;;;;;;5084864;28;19912;-70
2022/10/05 11:07:28;;;;;;;;;;;16.20;91.30;;;;;;5081708;28;19916;-70
2022/10/05 11:09:53;;;;;;;;;;;16.30;91.10;;;;;;5085666;28;20575;-70
2022/10/05 11:12:43;;;;;;;;;;;16.30;91.10;;;;;;5083553;28;20014;-70
2022/10/05 11:15:21;;;;;;;;;;;16.40;91.10;;;;;;5039138;28;19962;-70
2022/10/05 11:18:05;;;;;;;;;;;16.50;91.10;;;;;;5078774;28;19923;-70
2022/10/05 11:20:50;;;;;;;;;;;16.50;91.10;;;;;;5084955;28;19965;-70
2022/10/05 11:23:19;;;;;;;;;;;16.50;91.00;;;;;;5083055;28;19923;-70
2022/10/05 11:25:51;;;;;;;;;;;16.50;91.00;;;;;;5083822;28;19916;-70
2022/10/05 11:28:35;;;;;;;;;;;16.60;90.90;;;;;;5080301;28;19923;-70
2022/10/05 11:31:03;;;;;;;;;;;16.60;91.00;;;;;;5085003;28;19913;-70
2022/10/05 11:33:47;;;;;;;;;;;16.70;90.90;;;;;;5084211;28;19963;-70
2022/10/05 11:36:31;;;;;;;;;;;16.70;90.90;;;;;;5084986;28;19916;-70
2022/10/05 11:39:06;;;;;;;;;;;16.80;90.80;;;;;;5063921;28;20582;-70
2022/10/05 11:41:41;;;;;;;;;;;16.80;90.90;;;;;;5085604;28;19915;-70
2022/10/05 11:44:19;;;;;;;;;;;16.90;90.90;;;;;;5082014;28;19916;-70
2022/10/05 11:46:50;;;;;;;;;;;16.90;90.80;;;;;;5085798;28;20384;-70
2022/10/05 11:49:15;;;;;;;;;;;16.90;91.00;;;;;;5082626;28;19920;-70
2022/10/05 11:51:44;;;;;;;;;;;17.00;91.10;;;;;;5084874;28;19927;-70
2022/10/05 11:54:16;;;;;;;;;;;17.00;91.20;;;;;;5083156;28;19916;-71
2022/10/05 11:56:58;;;;;;;;;;;17.10;91.10;;;;;;5084945;28;19951;-70
2022/10/05 11:59:25;;;;;;;;;;;17.10;91.00;;;;;;5083533;28;19916;-71
2022/10/05 12:01:59;;;;;;;;;;;17.20;91.00;;;;;;5081687;28;19911;-71
2022/10/05 12:04:44;;;;;;;;;;;17.20;91.00;;;;;;5082309;28;20042;-71
2022/10/05 12:07:12;;;;;;;;;;;17.30;91.00;;;;;;5083919;28;19928;-70
2022/10/05 12:12:37;;;;;;;;;;;17.40;91.10;;;;;;5081198;28;19966;-71
2022/10/05 12:15:24;;;;;;;;;;;17.40;91.20;;;;;;5081482;28;19923;-71
2022/10/05 12:17:55;;;;;;;;;;;17.50;91.20;;;;;;5083156;28;20327;-71
2022/10/05 12:20:26;;;;;;;;;;;17.50;91.30;;;;;;5083156;28;19923;-71
2022/10/05 12:22:58;;;;;;;;;;;17.60;91.20;;;;;;5085477;28;19908;-71
2022/10/05 12:25:30;;;;;;;;;;;17.60;91.10;;;;;;5083851;28;19916;-70
2022/10/05 12:27:57;;;;;;;;;;;17.60;91.30;;;;;;5084296;28;20003;-72
2022/10/05 12:30:35;;;;;;;;;;;17.70;91.10;;;;;;5081569;28;20030;-71
2022/10/05 12:33:05;;;;;;;;;;;17.70;91.20;;;;;;5085606;28;19920;-71
2022/10/05 12:35:34;;;;;;;;;;;17.70;91.10;;;;;;5082206;28;19916;-71
2022/10/05 12:38:04;;;;;;;;;;;17.80;91.30;;;;;;5081226;28;19912;-72
2022/10/05 12:40:51;;;;;;;;;;;17.80;91.50;;;;;;5074114;28;19912;-71
2022/10/05 12:43:46;;;;;;;;;;;17.90;91.60;;;;;;5084149;28;19940;-71
2022/10/05 12:46:30;;;;;;;;;;;17.90;91.60;;;;;;5063694;28;19919;-71
2022/10/05 12:49:14;;;;;;;;;;;18.00;91.20;;;;;;5083119;28;19908;-71
2022/10/05 12:51:45;;;;;;;;;;;18.00;91.40;;;;;;5081898;28;19931;-71
2022/10/05 12:54:19;;;;;;;;;;;18.10;91.60;;;;;;5085232;28;19908;-71
2022/10/05 12:56:44;;;;;;;;;;;18.10;91.60;;;;;;5079223;28;20744;-71
2022/10/05 12:59:16;;;;;;;;;;;18.10;91.90;;;;;;5085506;28;19912;-71
2022/10/05 13:01:47;;;;;;;;;;;18.20;92.00;;;;;;5080339;28;19920;-70
2022/10/05 13:04:16;;;;;;;;;;;18.20;92.00;;;;;;5085082;28;19912;-70
2022/10/05 13:06:45;;;;;;;;;;;18.30;92.00;;;;;;5081486;28;19997;-70
2022/10/05 13:09:14;;;;;;;;;;;18.30;92.00;;;;;;5085205;28;19919;-71
2022/10/05 13:11:50;;;;;;;;;;;18.40;92.10;;;;;;5080477;28;19927;-71
2022/10/05 13:14:35;;;;;;;;;;;18.40;92.10;;;;;;5078248;28;20408;-70
2022/10/05 13:17:05;;;;;;;;;;;18.40;92.10;;;;;;5080358;28;19923;-71
2022/10/05 13:19:30;;;;;;;;;;;18.50;92.10;;;;;;5085021;28;19956;-70
2022/10/05 13:22:05;;;;;;;;;;;18.60;92.20;;;;;;5082223;28;19952;-71
2022/10/05 13:24:30;;;;;;;;;;;18.50;92.10;;;;;;5085003;28;20423;-70
2022/10/05 13:27:11;;;;;;;;;;;18.60;92.20;;;;;;5081526;28;19912;-70
2022/10/05 13:29:40;;;;;;;;;;;18.60;92.10;;;;;;5083298;28;19916;-70
2022/10/05 13:32:11;;;;;;;;;;;18.70;92.20;;;;;;5080244;28;19920;-70
2022/10/05 13:34:55;;;;;;;;;;;18.70;92.10;;;;;;5084997;28;19912;-70
2022/10/05 13:37:30;;;;;;;;;;;18.70;92.10;;;;;;5082049;28;19908;-70
2022/10/05 13:40:04;;;;;;;;;;;18.70;92.20;;;;;;5084744;28;19935;-70
2022/10/05 13:42:36;;;;;;;;;;;18.70;92.30;;;;;;5079050;28;19912;-71
2022/10/05 13:45:10;;;;;;;;;;;18.80;92.30;;;;;;5083935;28;20550;-71
2022/10/05 13:47:47;;;;;;;;;;;18.80;92.30;;;;;;5084645;28;19928;-71
2022/10/05 13:50:12;;;;;;;;;;;18.80;92.40;;;;;;5081951;28;19916;-70
2022/10/05 13:52:38;;;;;;;;;;;18.90;92.10;;;;;;5085805;28;19923;-71
2022/10/05 13:55:29;;;;;;;;;;;18.90;92.20;;;;;;5083102;28;19922;-71
2022/10/05 13:58:04;;;;;;;;;;;18.90;92.00;;;;;;5052123;28;19920;-70
2022/10/05 14:00:32;;;;;;;;;;;18.90;92.20;;;;;;5082132;28;19912;-70
2022/10/05 14:02:59;;;;;;;;;;;18.90;92.50;;;;;;5085263;28;20320;-70
2022/10/05 14:05:26;;;;;;;;;;;19.00;92.40;;;;;;5084927;28;19924;-70
2022/10/05 14:07:57;;;;;;;;;;;19.00;92.30;;;;;;5088209;28;19912;-70
2022/10/05 14:10:30;;;;;;;;;;;19.00;92.20;;;;;;5082943;28;20355;-71
2022/10/05 14:12:55;;;;;;;;;;;19.00;92.20;;;;;;5087116;28;20093;-71
2022/10/05 14:15:27;;;;;;;;;;;19.00;92.20;;;;;;5083975;28;20531;-72
2022/10/05 14:17:53;;;;;;;;;;;19.00;92.20;;;;;;5088343;28;20708;-71
2022/10/05 14:20:23;;;;;;;;;;;19.00;92.50;;;;;;5082392;28;19916;-71
2022/10/05 14:22:52;;;;;;;;;;;19.00;92.20;;;;;;5086821;28;19934;-70
2022/10/05 14:25:18;;;;;;;;;;;19.00;92.40;;;;;;5081950;28;20913;-71
2022/10/05 14:28:13;;;;;;;;;;;19.00;92.20;;;;;;5087040;28;19991;-71
2022/10/05 14:30:39;;;;;;;;;;;19.00;92.50;;;;;;4988561;28;20354;-70
2022/10/05 14:33:11;;;;;;;;;;;19.00;92.30;;;;;;5087168;28;19998;-70
2022/10/05 14:35:50;;;;;;;;;;;19.00;92.30;;;;;;5062593;28;19912;-70
2022/10/05 14:38:28;;;;;;;;;;;19.00;92.20;;;;;;5087287;28;19920;-70
2022/10/05 14:41:04;;;;;;;;;;;19.00;92.10;;;;;;5084082;28;20681;-71
2022/10/05 14:43:30;;;;;;;;;;;19.00;92.20;;;;;;5082971;28;19953;-71
2022/10/05 14:45:55;;;;;;;;;;;19.00;92.20;;;;;;5082826;28;19921;-71
2022/10/05 14:48:21;;;;;;;;;;;19.00;92.20;;;;;;5069517;28;19912;-71
2022/10/05 14:50:51;;;;;;;;;;;19.00;92.10;;;;;;5083554;28;19916;-71
2022/10/05 14:53:20;;;;;;;;;;;19.00;92.00;;;;;;5084236;28;20580;-71
2022/10/05 14:56:05;;;;;;;;;;;19.00;91.70;;;;;;5065467;28;19916;-70
2022/10/05 14:58:30;;;;;;;;;;;19.00;91.70;;;;;;5086769;28;19912;-71